Aviation Digital Data Service (ADDS)

Output produced by METARs form (1751 UTC 01 April 2015)
found at http://aviationweather.gov/adds/metars/
 
KRIC 011727Z 0118/0218 36006KT P6SM SKC 
     FM020100 00000KT P6SM SKC 
     FM021400 19009G17KT P6SM SCT250